Temp: 3.7°C   Baro: 1036.4mb
  Wind: 0.0mph   Dir: W (273°)
  Rain: 0.0mm (0.0mm/hr)
  Solar: 0W/m2  Hum: 84%

Historic data

Bath Spa Weather Station Historical Data
Daily Summary for December 23, 2019 Units:  Both    English   Metric
Daily Weekly Monthly Yearly Custom
  High: Low: Average:
Temperature: 50.5 °F /  10.3 °C 45.3 °F /  7.4 °C 47.4 °F /  8.6 °C
Dew Point: 45.7 °F /  7.6 °C 42.3 °F /  5.7 °C 43.7 °F /  6.5 °C
Humidity: 92% 82% 87%
Wind Speed: 12.3mph /  19.8km/h - 5.5mph /  8.9km/h
Wind Gust: 23mph /  37km/h - -
Wind- - WSW
Pressure: 29.88 in /  1011.7 hPa 29.47 in /  997.9 hPa -
Precipitation: 0.01 in /  0.25 mm    
Historical Graphs
 
 
Tabular Data for December 23, 2019
Time Temperature Dew Point Pressure Wind Wind Speed Wind Gust Humidity Rainfall Rate (Hourly) solar
00:09 45.7 °F /  7.6 °C 43.5 °F /  6.4 °C 29.47in /  997.9hPa West 3.3mph /  5.3km/h 9mph /  14.5km/h 92% 0.01in /  0.25mm 0 W/m2
00:14 45.6 °F /  7.6 °C 43.4 °F /  6.3 °C 29.47in /  997.9hPa WNW 3.7mph /  6km/h 7mph /  11.3km/h 92% 0.01in /  0.25mm 0 W/m2
00:19 45.5 °F /  7.5 °C 43.3 °F /  6.3 °C 29.47in /  997.9hPa WNW 2.5mph /  4km/h 6mph /  9.7km/h 92% 0.00in /  0mm 0 W/m2
00:24 45.3 °F /  7.4 °C 43.2 °F /  6.2 °C 29.47in /  997.9hPa WNW 2.9mph /  4.7km/h 7mph /  11.3km/h 92% 0.00in /  0mm 0 W/m2
00:29 45.3 °F /  7.4 °C 43.2 °F /  6.2 °C 29.47in /  997.9hPa WNW 3.2mph /  5.1km/h 9mph /  14.5km/h 92% 0.00in /  0mm 0 W/m2
00:34 45.7 °F /  7.6 °C 43.5 °F /  6.4 °C 29.48in /  998.2hPa West 6.2mph /  10km/h 11mph /  17.7km/h 92% 0.00in /  0mm 0 W/m2
00:39 45.9 °F /  7.7 °C 43.7 °F /  6.5 °C 29.48in /  998.2hPa West 5.8mph /  9.3km/h 11mph /  17.7km/h 92% 0.00in /  0mm 0 W/m2
00:44 45.9 °F /  7.7 °C 43.7 °F /  6.5 °C 29.48in /  998.2hPa West 8.3mph /  13.4km/h 14mph /  22.5km/h 92% 0.00in /  0mm 0 W/m2
00:49 45.9 °F /  7.7 °C 43.7 °F /  6.5 °C 29.49in /  998.5hPa West 9mph /  14.5km/h 20mph /  32.2km/h 92% 0.00in /  0mm 0 W/m2
00:54 46 °F /  7.8 °C 43.9 °F /  6.6 °C 29.49in /  998.5hPa WNW 7mph /  11.3km/h 20mph /  32.2km/h 92% 0.00in /  0mm 0 W/m2
00:59 46.1 °F /  7.8 °C 44 °F /  6.7 °C 29.49in /  998.5hPa West 8.2mph /  13.2km/h 17mph /  27.4km/h 92% 0.00in /  0mm 0 W/m2
01:04 46.3 °F /  7.9 °C 44.1 °F /  6.7 °C 29.49in /  998.5hPa West 7.4mph /  11.9km/h 17mph /  27.4km/h 92% 0.00in /  0mm 0 W/m2
01:09 46.4 °F /  8 °C 44.2 °F /  6.8 °C 29.50in /  998.9hPa WNW 8.2mph /  13.2km/h 14mph /  22.5km/h 92% 0.00in /  0mm 0 W/m2
01:14 46.6 °F /  8.1 °C 44.4 °F /  6.9 °C 29.50in /  998.9hPa West 5.6mph /  9km/h 11mph /  17.7km/h 92% 0.00in /  0mm 0 W/m2
01:19 46.6 °F /  8.1 °C 44.3 °F /  6.8 °C 29.50in /  998.9hPa WNW 5.5mph /  8.9km/h 11mph /  17.7km/h 91.8% 0.00in /  0mm 0 W/m2
01:24 46.7 °F /  8.2 °C 44.1 °F /  6.7 °C 29.50in /  998.9hPa WNW 5.7mph /  9.2km/h 9mph /  14.5km/h 91% 0.00in /  0mm 0 W/m2
01:29 46.8 °F /  8.2 °C 44.2 °F /  6.8 °C 29.50in /  998.9hPa West 8.6mph /  13.8km/h 12mph /  19.3km/h 91% 0.00in /  0mm 0 W/m2
01:34 46.9 °F /  8.3 °C 44.4 °F /  6.9 °C 29.51in /  999.2hPa WNW 11mph /  17.7km/h 15mph /  24.1km/h 91% 0.00in /  0mm 0 W/m2
01:39 47 °F /  8.3 °C 44.9 °F /  7.2 °C 29.51in /  999.2hPa WNW 8.6mph /  13.8km/h 18mph /  29km/h 92% 0.00in /  0mm 0 W/m2
01:44 47.3 °F /  8.5 °C 45 °F /  7.2 °C 29.52in /  999.5hPa WNW 11.8mph /  19km/h 20mph /  32.2km/h 91.4% 0.00in /  0mm 0 W/m2
01:49 47.5 °F /  8.6 °C 45 °F /  7.2 °C 29.52in /  999.5hPa West 9.6mph /  15.4km/h 16mph /  25.7km/h 91% 0.00in /  0mm 0 W/m2
01:54 47.6 °F /  8.7 °C 45 °F /  7.2 °C 29.52in /  999.5hPa WNW 9.2mph /  14.8km/h 21mph /  33.8km/h 91% 0.00in /  0mm 0 W/m2
01:59 47.7 °F /  8.7 °C 45 °F /  7.2 °C 29.52in /  999.5hPa WNW 8.8mph /  14.2km/h 21mph /  33.8km/h 90.4% 0.00in /  0mm 0 W/m2
02:04 47.7 °F /  8.7 °C 45 °F /  7.2 °C 29.53in /  999.9hPa WNW 9.2mph /  14.8km/h 15mph /  24.1km/h 90% 0.00in /  0mm 0 W/m2
02:09 47.7 °F /  8.7 °C 44.9 °F /  7.2 °C 29.53in /  999.9hPa WNW 12.2mph /  19.6km/h 21mph /  33.8km/h 89.8% 0.00in /  0mm 0 W/m2
02:14 47.7 °F /  8.7 °C 44.6 °F /  7 °C 29.53in /  999.9hPa WNW 10.8mph /  17.4km/h 20mph /  32.2km/h 89% 0.00in /  0mm 0 W/m2
02:19 47.7 °F /  8.7 °C 44.6 °F /  7 °C 29.54in /  1000.2hPa WNW 12.3mph /  19.8km/h 23mph /  37km/h 89% 0.00in /  0mm 0 W/m2
02:24 47.7 °F /  8.7 °C 44.6 °F /  7 °C 29.54in /  1000.2hPa WNW 11.7mph /  18.8km/h 19mph /  30.6km/h 89% 0.00in /  0mm 0 W/m2
02:29 47.6 °F /  8.7 °C 44.4 °F /  6.9 °C 29.54in /  1000.2hPa WNW 9.3mph /  15km/h 20mph /  32.2km/h 88.8% 0.00in /  0mm 0 W/m2
02:34 47.6 °F /  8.7 °C 44.2 °F /  6.8 °C 29.55in /  1000.6hPa WNW 9.4mph /  15.1km/h 18mph /  29km/h 88% 0.00in /  0mm 0 W/m2
02:39 47.5 °F /  8.6 °C 44.3 °F /  6.8 °C 29.55in /  1000.6hPa NW 6.7mph /  10.8km/h 18mph /  29km/h 88.5% 0.00in /  0mm 0 W/m2
02:44 47.5 °F /  8.6 °C 44.4 °F /  6.9 °C 29.56in /  1000.9hPa WNW 10mph /  16.1km/h 16mph /  25.7km/h 89% 0.00in /  0mm 0 W/m2
02:49 47.5 °F /  8.6 °C 44.4 °F /  6.9 °C 29.56in /  1000.9hPa WNW 12mph /  19.3km/h 20mph /  32.2km/h 89% 0.00in /  0mm 0 W/m2
02:54 47.3 °F /  8.5 °C 44.2 °F /  6.8 °C 29.57in /  1001.2hPa NW 8.8mph /  14.2km/h 20mph /  32.2km/h 89% 0.00in /  0mm 0 W/m2
02:59 47.1 °F /  8.4 °C 44.1 °F /  6.7 °C 29.57in /  1001.2hPa WNW 9.2mph /  14.8km/h 18mph /  29km/h 89% 0.00in /  0mm 0 W/m2
03:04 47.1 °F /  8.4 °C 44.1 °F /  6.7 °C 29.57in /  1001.2hPa WNW 8mph /  12.9km/h 19mph /  30.6km/h 89% 0.00in /  0mm 0 W/m2
03:09 47.1 °F /  8.4 °C 44.1 °F /  6.7 °C 29.57in /  1001.2hPa WNW 8mph /  12.9km/h 18mph /  29km/h 89% 0.00in /  0mm 0 W/m2
03:14 47 °F /  8.3 °C 44 °F /  6.7 °C 29.58in /  1001.6hPa WNW 11.5mph /  18.5km/h 17mph /  27.4km/h 89% 0.00in /  0mm 0 W/m2
03:19 47 °F /  8.3 °C 43.9 °F /  6.6 °C 29.58in /  1001.6hPa WNW 9.1mph /  14.6km/h 20mph /  32.2km/h 88.8% 0.00in /  0mm 0 W/m2
03:24 47.1 °F /  8.4 °C 43.7 °F /  6.5 °C 29.59in /  1001.9hPa NW 12mph /  19.3km/h 18mph /  29km/h 88% 0.00in /  0mm 0 W/m2
03:29 47.3 °F /  8.5 °C 43.9 °F /  6.6 °C 29.59in /  1001.9hPa WNW 11mph /  17.7km/h 23mph /  37km/h 88% 0.00in /  0mm 0 W/m2
03:34 47.5 °F /  8.6 °C 43.9 °F /  6.6 °C 29.59in /  1001.9hPa NW 8.9mph /  14.3km/h 18mph /  29km/h 87% 0.00in /  0mm 0 W/m2
03:39 47.5 °F /  8.6 °C 43.8 °F /  6.6 °C 29.59in /  1001.9hPa WNW 11mph /  17.7km/h 19mph /  30.6km/h 87% 0.00in /  0mm 0 W/m2
03:44 47.5 °F /  8.6 °C 43.7 °F /  6.5 °C 29.59in /  1001.9hPa WNW 12mph /  19.3km/h 18mph /  29km/h 86.4% 0.00in /  0mm 0 W/m2
03:49 47.4 °F /  8.6 °C 43.4 °F /  6.3 °C 29.60in /  1002.3hPa WNW 8.6mph /  13.8km/h 17mph /  27.4km/h 86% 0.00in /  0mm 0 W/m2
03:54 47.2 °F /  8.4 °C 43.3 °F /  6.3 °C 29.60in /  1002.3hPa West 9.2mph /  14.8km/h 18mph /  29km/h 86% 0.00in /  0mm 0 W/m2
03:59 47.2 °F /  8.4 °C 43.3 °F /  6.3 °C 29.60in /  1002.3hPa WNW 7mph /  11.3km/h 16mph /  25.7km/h 86% 0.00in /  0mm 0 W/m2
04:04 47.1 °F /  8.4 °C 43.2 °F /  6.2 °C 29.61in /  1002.6hPa WNW 7.2mph /  11.6km/h 12mph /  19.3km/h 86% 0.00in /  0mm 0 W/m2
04:09 47.1 °F /  8.4 °C 43.2 °F /  6.2 °C 29.61in /  1002.6hPa WNW 4.8mph /  7.7km/h 11mph /  17.7km/h 86% 0.00in /  0mm 0 W/m2
04:14 47.1 °F /  8.4 °C 43.2 °F /  6.2 °C 29.61in /  1002.6hPa NW 8.2mph /  13.2km/h 13mph /  20.9km/h 86% 0.00in /  0mm 0 W/m2
04:19 47.1 °F /  8.4 °C 43.2 °F /  6.2 °C 29.61in /  1002.6hPa West 8.2mph /  13.2km/h 16mph /  25.7km/h 86% 0.00in /  0mm 0 W/m2
04:24 47.1 °F /  8.4 °C 43.2 °F /  6.2 °C 29.62in /  1002.9hPa West 7.4mph /  11.9km/h 16mph /  25.7km/h 86% 0.00in /  0mm 0 W/m2
04:29 47.1 °F /  8.4 °C 43.2 °F /  6.2 °C 29.62in /  1002.9hPa WNW 6mph /  9.7km/h 13mph /  20.9km/h 86% 0.00in /  0mm 0 W/m2
04:34 47.1 °F /  8.4 °C 43.2 °F /  6.2 °C 29.62in /  1002.9hPa WNW 8mph /  12.9km/h 19mph /  30.6km/h 86% 0.00in /  0mm 0 W/m2
04:39 47.2 °F /  8.4 °C 43.2 °F /  6.2 °C 29.63in /  1003.3hPa WNW 11.2mph /  18km/h 19mph /  30.6km/h 86% 0.00in /  0mm 0 W/m2
04:44 47.3 °F /  8.5 °C 43.3 °F /  6.3 °C 29.63in /  1003.3hPa West 8.2mph /  13.2km/h 17mph /  27.4km/h 86% 0.00in /  0mm 0 W/m2
04:49 47.1 °F /  8.4 °C 43.2 °F /  6.2 °C 29.63in /  1003.3hPa WNW 6.7mph /  10.8km/h 12mph /  19.3km/h 86% 0.00in /  0mm 0 W/m2
04:54 46.9 °F /  8.3 °C 42.7 °F /  5.9 °C 29.63in /  1003.3hPa WNW 8.8mph /  14.2km/h 13mph /  20.9km/h 85.2% 0.00in /  0mm 0 W/m2
04:59 46.9 °F /  8.3 °C 42.6 °F /  5.9 °C 29.64in /  1003.6hPa WNW 6mph /  9.7km/h 12mph /  19.3km/h 85% 0.00in /  0mm 0 W/m2
05:04 46.8 °F /  8.2 °C 42.4 °F /  5.8 °C 29.64in /  1003.6hPa WNW 5.4mph /  8.7km/h 13mph /  20.9km/h 85% 0.00in /  0mm 0 W/m2
05:09 46.6 °F /  8.1 °C 42.3 °F /  5.7 °C 29.64in /  1003.6hPa WNW 5.2mph /  8.4km/h 10mph /  16.1km/h 85% 0.00in /  0mm 0 W/m2
05:14 46.6 °F /  8.1 °C 42.3 °F /  5.7 °C 29.64in /  1003.6hPa WNW 4.6mph /  7.4km/h 13mph /  20.9km/h 85% 0.00in /  0mm 0 W/m2
05:19 46.6 °F /  8.1 °C 42.3 °F /  5.7 °C 29.65in /  1003.9hPa WNW 7.4mph /  11.9km/h 11mph /  17.7km/h 85% 0.00in /  0mm 0 W/m2
05:24 46.6 °F /  8.1 °C 42.3 °F /  5.7 °C 29.65in /  1003.9hPa WNW 7.2mph /  11.6km/h 11mph /  17.7km/h 85% 0.00in /  0mm 0 W/m2
05:29 46.8 °F /  8.2 °C 42.4 °F /  5.8 °C 29.65in /  1003.9hPa WNW 6mph /  9.7km/h 11mph /  17.7km/h 85% 0.00in /  0mm 0 W/m2
05:34 46.8 °F /  8.2 °C 42.4 °F /  5.8 °C 29.66in /  1004.3hPa WNW 6.6mph /  10.6km/h 11mph /  17.7km/h 85% 0.00in /  0mm 0 W/m2
05:39 46.8 °F /  8.2 °C 42.4 °F /  5.8 °C 29.66in /  1004.3hPa West 6mph /  9.7km/h 11mph /  17.7km/h 85% 0.00in /  0mm 0 W/m2
05:44 46.8 °F /  8.2 °C 42.8 °F /  6 °C 29.66in /  1004.3hPa WNW 6.8mph /  10.9km/h 10mph /  16.1km/h 86% 0.00in /  0mm 0 W/m2
05:49 46.9 °F /  8.3 °C 43 °F /  6.1 °C 29.67in /  1004.6hPa WNW 6.2mph /  10km/h 11mph /  17.7km/h 86% 0.00in /  0mm 0 W/m2
05:54 46.9 °F /  8.3 °C 43 °F /  6.1 °C 29.67in /  1004.6hPa West 6.3mph /  10.1km/h 11mph /  17.7km/h 86% 0.00in /  0mm 0 W/m2
05:59 47 °F /  8.3 °C 43.1 °F /  6.2 °C 29.67in /  1004.6hPa WNW 5.5mph /  8.9km/h 12mph /  19.3km/h 86% 0.00in /  0mm 0 W/m2
06:04 47.1 °F /  8.4 °C 43.2 °F /  6.2 °C 29.68in /  1005hPa WNW 4.7mph /  7.6km/h 11mph /  17.7km/h 86% 0.00in /  0mm 0 W/m2
06:09 47.1 °F /  8.4 °C 43.2 °F /  6.2 °C 29.68in /  1005hPa WNW 5.2mph /  8.4km/h 12mph /  19.3km/h 86% 0.00in /  0mm 0 W/m2
06:14 47.1 °F /  8.4 °C 43.2 °F /  6.2 °C 29.68in /  1005hPa WNW 4.5mph /  7.2km/h 12mph /  19.3km/h 86% 0.00in /  0mm 0 W/m2
06:19 47.1 °F /  8.4 °C 43 °F /  6.1 °C 29.68in /  1005hPa WNW 5.5mph /  8.9km/h 11mph /  17.7km/h 85.4% 0.00in /  0mm 0 W/m2
06:24 47.2 °F /  8.4 °C 43 °F /  6.1 °C 29.68in /  1005hPa WNW 6.8mph /  10.9km/h 11mph /  17.7km/h 85.2% 0.00in /  0mm 0 W/m2
06:29 47.3 °F /  8.5 °C 43 °F /  6.1 °C 29.68in /  1005hPa WNW 5.8mph /  9.3km/h 11mph /  17.7km/h 85% 0.00in /  0mm 0 W/m2
06:34 47.3 °F /  8.5 °C 43 °F /  6.1 °C 29.69in /  1005.3hPa WNW 6.6mph /  10.6km/h 11mph /  17.7km/h 85% 0.00in /  0mm 0 W/m2
06:39 47.3 °F /  8.5 °C 43 °F /  6.1 °C 29.69in /  1005.3hPa WNW 6.8mph /  10.9km/h 12mph /  19.3km/h 85% 0.00in /  0mm 0 W/m2
06:44 47.3 °F /  8.5 °C 43 °F /  6.1 °C 29.69in /  1005.3hPa WNW 7.6mph /  12.2km/h 13mph /  20.9km/h 85% 0.00in /  0mm 0 W/m2
06:49 47.3 °F /  8.5 °C 43 °F /  6.1 °C 29.70in /  1005.6hPa WNW 6.6mph /  10.6km/h 11mph /  17.7km/h 85% 0.00in /  0mm 0 W/m2
06:54 47.2 °F /  8.4 °C 43.2 °F /  6.2 °C 29.70in /  1005.6hPa WNW 6.3mph /  10.1km/h 10mph /  16.1km/h 86% 0.00in /  0mm 0 W/m2
06:59 47.1 °F /  8.4 °C 43.2 °F /  6.2 °C 29.70in /  1005.6hPa WNW 5.8mph /  9.3km/h 10mph /  16.1km/h 86% 0.00in /  0mm 0 W/m2
07:04 47.1 °F /  8.4 °C 43.3 °F /  6.3 °C 29.70in /  1005.6hPa WNW 6.7mph /  10.8km/h 9mph /  14.5km/h 86.2% 0.00in /  0mm 0 W/m2
07:09 47 °F /  8.3 °C 43.4 °F /  6.3 °C 29.70in /  1005.6hPa WNW 8.8mph /  14.2km/h 16mph /  25.7km/h 87% 0.01in /  0.25mm 0 W/m2
07:14 46.9 °F /  8.3 °C 43.3 °F /  6.3 °C 29.70in /  1005.6hPa WNW 6.6mph /  10.6km/h 11mph /  17.7km/h 87% 0.01in /  0.25mm 0 W/m2
07:19 46.9 °F /  8.3 °C 43.5 °F /  6.4 °C 29.70in /  1005.6hPa WNW 6.6mph /  10.6km/h 13mph /  20.9km/h 88% 0.01in /  0.25mm 0 W/m2
07:24 46.9 °F /  8.3 °C 43.4 °F /  6.3 °C 29.71in /  1006hPa WNW 6.4mph /  10.3km/h 12mph /  19.3km/h 88% 0.01in /  0.25mm 0 W/m2
07:29 46.8 °F /  8.2 °C 43.3 °F /  6.3 °C 29.71in /  1006hPa WNW 4.9mph /  7.9km/h 12mph /  19.3km/h 88% 0.01in /  0.25mm 0 W/m2
07:34 46.8 °F /  8.2 °C 43.6 °F /  6.4 °C 29.72in /  1006.3hPa West 3.9mph /  6.3km/h 9mph /  14.5km/h 88.8% 0.01in /  0.25mm 0 W/m2
07:39 46.8 °F /  8.2 °C 43.7 °F /  6.5 °C 29.72in /  1006.3hPa WNW 3.8mph /  6.1km/h 7mph /  11.3km/h 89% 0.01in /  0.25mm 0 W/m2
07:44 46.8 °F /  8.2 °C 43.8 °F /  6.6 °C 29.72in /  1006.3hPa WNW 4.5mph /  7.2km/h 9mph /  14.5km/h 89% 0.01in /  0.25mm 0 W/m2
07:49 46.9 °F /  8.3 °C 43.9 °F /  6.6 °C 29.73in /  1006.7hPa NW 6.8mph /  10.9km/h 9mph /  14.5km/h 89% 0.01in /  0.25mm 0 W/m2
07:54 46.9 °F /  8.3 °C 43.9 °F /  6.6 °C 29.73in /  1006.7hPa NW 4.8mph /  7.7km/h 9mph /  14.5km/h 89% 0.01in /  0.25mm 0 W/m2
07:59 46.9 °F /  8.3 °C 43.9 °F /  6.6 °C 29.73in /  1006.7hPa WNW 5.8mph /  9.3km/h 10mph /  16.1km/h 89% 0.01in /  0.25mm 0 W/m2
08:03 46.9 °F /  8.3 °C 43.7 °F /  6.5 °C 29.74in /  1007hPa WNW 5mph /  8km/h 10mph /  16.1km/h 88.5% 0.01in /  0.25mm 0 W/m2
08:09 46.8 °F /  8.2 °C 43.3 °F /  6.3 °C 29.74in /  1007hPa WNW 6.1mph /  9.8km/h 11mph /  17.7km/h 88% 0.01in /  0.25mm 0 W/m2
08:14 46.8 °F /  8.2 °C 43.3 °F /  6.3 °C 29.74in /  1007hPa WNW 5.4mph /  8.7km/h 12mph /  19.3km/h 88% 0.00in /  0mm 0 W/m2
08:19 46.6 °F /  8.1 °C 43.2 °F /  6.2 °C 29.74in /  1007hPa WNW 6.2mph /  10km/h 11mph /  17.7km/h 88% 0.00in /  0mm 5 W/m2
08:24 46.6 °F /  8.1 °C 43 °F /  6.1 °C 29.74in /  1007hPa WNW 6mph /  9.7km/h 11mph /  17.7km/h 87% 0.00in /  0mm 7 W/m2
08:29 46.7 °F /  8.2 °C 43.1 °F /  6.2 °C 29.75in /  1007.3hPa WNW 6.6mph /  10.6km/h 12mph /  19.3km/h 87% 0.00in /  0mm 11 W/m2
08:34 46.8 °F /  8.2 °C 43 °F /  6.1 °C 29.75in /  1007.3hPa WNW 4.4mph /  7.1km/h 9mph /  14.5km/h 86.4% 0.00in /  0mm 16 W/m2
08:39 46.8 °F /  8.2 °C 42.8 °F /  6 °C 29.75in /  1007.3hPa WNW 7.8mph /  12.6km/h 10mph /  16.1km/h 86% 0.00in /  0mm 18 W/m2
08:44 46.8 °F /  8.2 °C 42.8 °F /  6 °C 29.76in /  1007.7hPa WNW 6.2mph /  10km/h 10mph /  16.1km/h 86% 0.00in /  0mm 25 W/m2
08:49 46.8 °F /  8.2 °C 42.7 °F /  5.9 °C 29.76in /  1007.7hPa WNW 3.7mph /  6km/h 10mph /  16.1km/h 85.6% 0.00in /  0mm 25 W/m2
08:54 46.8 °F /  8.2 °C 42.5 °F /  5.8 °C 29.76in /  1007.7hPa WNW 7.2mph /  11.6km/h 14mph /  22.5km/h 85% 0.00in /  0mm 21 W/m2
08:59 46.8 °F /  8.2 °C 42.5 °F /  5.8 °C 29.76in /  1007.7hPa WNW 4.2mph /  6.8km/h 8mph /  12.9km/h 85% 0.00in /  0mm 23 W/m2
09:04 46.8 °F /  8.2 °C 42.4 °F /  5.8 °C 29.76in /  1007.7hPa WNW 5.4mph /  8.7km/h 9mph /  14.5km/h 85% 0.00in /  0mm 21 W/m2
09:09 46.8 °F /  8.2 °C 42.4 °F /  5.8 °C 29.77in /  1008hPa WNW 4.8mph /  7.7km/h 9mph /  14.5km/h 85% 0.00in /  0mm 33 W/m2
09:14 46.8 °F /  8.2 °C 42.4 °F /  5.8 °C 29.77in /  1008hPa WNW 6mph /  9.7km/h 12mph /  19.3km/h 85% 0.00in /  0mm 35 W/m2
09:19 46.8 °F /  8.2 °C 42.5 °F /  5.8 °C 29.78in /  1008.4hPa WNW 6.8mph /  10.9km/h 13mph /  20.9km/h 85% 0.00in /  0mm 60 W/m2
09:24 46.9 °F /  8.3 °C 42.6 °F /  5.9 °C 29.78in /  1008.4hPa WNW 6.3mph /  10.1km/h 13mph /  20.9km/h 85% 0.00in /  0mm 51 W/m2
09:29 47.2 °F /  8.4 °C 42.9 °F /  6.1 °C 29.79in /  1008.7hPa WNW 7.8mph /  12.6km/h 15mph /  24.1km/h 85% 0.00in /  0mm 56 W/m2
09:34 47.5 °F /  8.6 °C 43.2 °F /  6.2 °C 29.79in /  1008.7hPa WNW 8.3mph /  13.4km/h 15mph /  24.1km/h 85% 0.00in /  0mm 60 W/m2
09:39 47.6 °F /  8.7 °C 43.2 °F /  6.2 °C 29.80in /  1009hPa WNW 7.8mph /  12.6km/h 11mph /  17.7km/h 84.8% 0.00in /  0mm 62 W/m2
09:44 47.7 °F /  8.7 °C 43 °F /  6.1 °C 29.80in /  1009hPa WNW 6.7mph /  10.8km/h 13mph /  20.9km/h 84% 0.00in /  0mm 62 W/m2
09:49 47.8 °F /  8.8 °C 43.4 °F /  6.3 °C 29.80in /  1009hPa WNW 9.8mph /  15.8km/h 16mph /  25.7km/h 84.6% 0.00in /  0mm 58 W/m2
09:54 47.8 °F /  8.8 °C 43.2 °F /  6.2 °C 29.80in /  1009hPa WNW 8.1mph /  13km/h 13mph /  20.9km/h 84% 0.00in /  0mm 54 W/m2
09:59 48 °F /  8.9 °C 43.3 °F /  6.3 °C 29.80in /  1009hPa WNW 10.4mph /  16.7km/h 17mph /  27.4km/h 84% 0.00in /  0mm 62 W/m2
10:04 48.2 °F /  9 °C 43.3 °F /  6.3 °C 29.81in /  1009.4hPa WNW 9.6mph /  15.4km/h 16mph /  25.7km/h 83% 0.00in /  0mm 91 W/m2
10:09 48.5 °F /  9.2 °C 43.5 °F /  6.4 °C 29.81in /  1009.4hPa WNW 6.4mph /  10.3km/h 16mph /  25.7km/h 82.6% 0.00in /  0mm 83 W/m2
10:14 48.6 °F /  9.2 °C 43.3 °F /  6.3 °C 29.81in /  1009.4hPa WNW 10.4mph /  16.7km/h 17mph /  27.4km/h 82% 0.00in /  0mm 84 W/m2
10:19 48.6 °F /  9.2 °C 43.3 °F /  6.3 °C 29.81in /  1009.4hPa WNW 9.8mph /  15.8km/h 15mph /  24.1km/h 82% 0.00in /  0mm 72 W/m2
10:24 48.6 °F /  9.2 °C 43.3 °F /  6.3 °C 29.82in /  1009.7hPa WNW 7.8mph /  12.6km/h 16mph /  25.7km/h 82% 0.00in /  0mm 114 W/m2
10:29 48.6 °F /  9.2 °C 43.4 °F /  6.3 °C 29.82in /  1009.7hPa WNW 7mph /  11.3km/h 16mph /  25.7km/h 82.2% 0.00in /  0mm 111 W/m2
10:34 48.7 °F /  9.3 °C 43.8 °F /  6.6 °C 29.82in /  1009.7hPa West 7mph /  11.3km/h 14mph /  22.5km/h 83% 0.00in /  0mm 113 W/m2
10:39 48.7 °F /  9.3 °C 43.9 °F /  6.6 °C 29.82in /  1009.7hPa WNW 8.4mph /  13.5km/h 15mph /  24.1km/h 83% 0.00in /  0mm 65 W/m2
10:44 48.8 °F /  9.3 °C 44 °F /  6.7 °C 29.82in /  1009.7hPa West 8.2mph /  13.2km/h 13mph /  20.9km/h 83% 0.00in /  0mm 123 W/m2
10:49 48.9 °F /  9.4 °C 44.1 °F /  6.7 °C 29.83in /  1010hPa WNW 9.2mph /  14.8km/h 14mph /  22.5km/h 83% 0.00in /  0mm 127 W/m2
10:54 48.9 °F /  9.4 °C 44.1 °F /  6.7 °C 29.83in /  1010hPa West 8.4mph /  13.5km/h 14mph /  22.5km/h 83% 0.00in /  0mm 65 W/m2
10:59 48.7 °F /  9.3 °C 44.1 °F /  6.7 °C 29.83in /  1010hPa West 7.4mph /  11.9km/h 18mph /  29km/h 83.8% 0.00in /  0mm 90 W/m2
11:04 48.8 °F /  9.3 °C 44.2 °F /  6.8 °C 29.83in /  1010hPa WNW 10.5mph /  16.9km/h 18mph /  29km/h 84% 0.00in /  0mm 225 W/m2
11:09 49.2 °F /  9.6 °C 44.6 °F /  7 °C 29.83in /  1010hPa West 12.3mph /  19.8km/h 20mph /  32.2km/h 84.3% 0.00in /  0mm 167 W/m2
11:14 49.3 °F /  9.6 °C 44.6 °F /  7 °C 29.83in /  1010hPa WNW 9mph /  14.5km/h 19mph /  30.6km/h 84% 0.00in /  0mm 151 W/m2
11:19 49.5 °F /  9.7 °C 44.6 °F /  7 °C 29.83in /  1010hPa WNW 10.6mph /  17.1km/h 20mph /  32.2km/h 83% 0.00in /  0mm 162 W/m2
11:24 49.5 °F /  9.7 °C 44.6 °F /  7 °C 29.83in /  1010hPa WNW 7.4mph /  11.9km/h 16mph /  25.7km/h 83% 0.00in /  0mm 237 W/m2
11:29 49.7 °F /  9.8 °C 44.6 °F /  7 °C 29.83in /  1010hPa WNW 6mph /  9.7km/h 15mph /  24.1km/h 82.2% 0.00in /  0mm 251 W/m2
11:34 50 °F /  10 °C 44.8 °F /  7.1 °C 29.83in /  1010hPa West 7.1mph /  11.4km/h 12mph /  19.3km/h 82% 0.00in /  0mm 218 W/m2
11:39 50 °F /  10 °C 44.8 °F /  7.1 °C 29.83in /  1010hPa WNW 7.9mph /  12.7km/h 15mph /  24.1km/h 82% 0.00in /  0mm 151 W/m2
11:44 49.8 °F /  9.9 °C 44.6 °F /  7 °C 29.83in /  1010hPa WNW 5.2mph /  8.4km/h 12mph /  19.3km/h 82% 0.00in /  0mm 186 W/m2
11:49 50 °F /  10 °C 44.8 °F /  7.1 °C 29.83in /  1010hPa West 7.8mph /  12.6km/h 14mph /  22.5km/h 82% 0.00in /  0mm 163 W/m2
11:54 49.8 °F /  9.9 °C 44.6 °F /  7 °C 29.83in /  1010hPa WNW 7.7mph /  12.4km/h 15mph /  24.1km/h 82% 0.00in /  0mm 163 W/m2
11:59 49.8 °F /  9.9 °C 44.7 °F /  7.1 °C 29.83in /  1010hPa WNW 5.7mph /  9.2km/h 11mph /  17.7km/h 82.6% 0.00in /  0mm 163 W/m2
12:03 50 °F /  10 °C 44.9 °F /  7.2 °C 29.83in /  1010hPa West 6.2mph /  10km/h 11mph /  17.7km/h 83% 0.00in /  0mm 276 W/m2
12:09 50.4 °F /  10.2 °C 45.3 °F /  7.4 °C 29.83in /  1010hPa WNW 6.2mph /  10km/h 11mph /  17.7km/h 83% 0.00in /  0mm 260 W/m2
12:14 50.5 °F /  10.3 °C 45.5 °F /  7.5 °C 29.83in /  1010hPa West 9mph /  14.5km/h 18mph /  29km/h 83% 0.00in /  0mm 192 W/m2
12:19 50.4 °F /  10.2 °C 45.3 °F /  7.4 °C 29.83in /  1010hPa WNW 7.9mph /  12.7km/h 17mph /  27.4km/h 82.8% 0.00in /  0mm 105 W/m2
12:24 50.2 °F /  10.1 °C 45.1 °F /  7.3 °C 29.83in /  1010hPa West 6.4mph /  10.3km/h 18mph /  29km/h 83% 0.00in /  0mm 105 W/m2
12:29 50 °F /  10 °C 45 °F /  7.2 °C 29.83in /  1010hPa WNW 7.5mph /  12.1km/h 16mph /  25.7km/h 83% 0.00in /  0mm 88 W/m2
12:34 49.8 °F /  9.9 °C 44.8 °F /  7.1 °C 29.83in /  1010hPa WNW 7.6mph /  12.2km/h 13mph /  20.9km/h 83% 0.00in /  0mm 120 W/m2
12:39 49.7 °F /  9.8 °C 44.8 °F /  7.1 °C 29.83in /  1010hPa WNW 7.6mph /  12.2km/h 14mph /  22.5km/h 83% 0.00in /  0mm 153 W/m2
12:44 49.8 °F /  9.9 °C 44.8 °F /  7.1 °C 29.83in /  1010hPa West 7.9mph /  12.7km/h 12mph /  19.3km/h 83% 0.00in /  0mm 179 W/m2
12:49 49.8 °F /  9.9 °C 45.1 °F /  7.3 °C 29.83in /  1010hPa WNW 9.2mph /  14.8km/h 18mph /  29km/h 84% 0.00in /  0mm 167 W/m2
12:54 49.7 °F /  9.8 °C 45 °F /  7.2 °C 29.83in /  1010hPa West 10.2mph /  16.4km/h 20mph /  32.2km/h 84% 0.00in /  0mm 79 W/m2
12:59 49.5 °F /  9.7 °C 44.9 °F /  7.2 °C 29.83in /  1010hPa West 8.6mph /  13.8km/h 20mph /  32.2km/h 84% 0.00in /  0mm 62 W/m2
13:04 49.5 °F /  9.7 °C 45 °F /  7.2 °C 29.84in /  1010.4hPa West 11mph /  17.7km/h 17mph /  27.4km/h 84.8% 0.00in /  0mm 97 W/m2
13:09 49.5 °F /  9.7 °C 45.1 °F /  7.3 °C 29.84in /  1010.4hPa WNW 10mph /  16.1km/h 17mph /  27.4km/h 85% 0.00in /  0mm 105 W/m2
13:14 49.6 °F /  9.8 °C 45.3 °F /  7.4 °C 29.84in /  1010.4hPa West 10.2mph /  16.4km/h 17mph /  27.4km/h 85% 0.00in /  0mm 127 W/m2
13:19 49.6 °F /  9.8 °C 45.3 °F /  7.4 °C 29.84in /  1010.4hPa WNW 8.6mph /  13.8km/h 16mph /  25.7km/h 85% 0.00in /  0mm 81 W/m2
13:24 49.6 °F /  9.8 °C 45.3 °F /  7.4 °C 29.84in /  1010.4hPa WNW 6.6mph /  10.6km/h 14mph /  22.5km/h 85% 0.00in /  0mm 72 W/m2
13:29 49.6 °F /  9.8 °C 45.3 °F /  7.4 °C 29.84in /  1010.4hPa NW 7.2mph /  11.6km/h 14mph /  22.5km/h 85% 0.00in /  0mm 67 W/m2
13:34 49.5 °F /  9.7 °C 45.2 °F /  7.3 °C 29.84in /  1010.4hPa WNW 10mph /  16.1km/h 17mph /  27.4km/h 85% 0.00in /  0mm 84 W/m2
13:39 49.6 °F /  9.8 °C 45.3 °F /  7.4 °C 29.84in /  1010.4hPa WNW 7mph /  11.3km/h 13mph /  20.9km/h 85% 0.00in /  0mm 95 W/m2
13:43 49.6 °F /  9.8 °C 45.3 °F /  7.4 °C 29.84in /  1010.4hPa WNW 6.8mph /  10.9km/h 13mph /  20.9km/h 85% 0.00in /  0mm 116 W/m2
13:49 49.7 °F /  9.8 °C 45.4 °F /  7.4 °C 29.83in /  1010hPa WNW 6.8mph /  10.9km/h 13mph /  20.9km/h 85% 0.00in /  0mm 151 W/m2
13:54 50 °F /  10 °C 45.7 °F /  7.6 °C 29.83in /  1010hPa WNW 3.3mph /  5.3km/h 11mph /  17.7km/h 85% 0.00in /  0mm 146 W/m2
13:59 50.1 °F /  10.1 °C 45.5 °F /  7.5 °C 29.83in /  1010hPa WNW 5.8mph /  9.3km/h 12mph /  19.3km/h 84.2% 0.00in /  0mm 125 W/m2
14:04 50.2 °F /  10.1 °C 45.5 °F /  7.5 °C 29.83in /  1010hPa WNW 6.2mph /  10km/h 12mph /  19.3km/h 84% 0.00in /  0mm 130 W/m2
14:09 50.2 °F /  10.1 °C 45.5 °F /  7.5 °C 29.83in /  1010hPa WNW 8.2mph /  13.2km/h 14mph /  22.5km/h 84% 0.00in /  0mm 104 W/m2
14:14 50.2 °F /  10.1 °C 45.5 °F /  7.5 °C 29.83in /  1010hPa WNW 7.1mph /  11.4km/h 14mph /  22.5km/h 84% 0.00in /  0mm 88 W/m2
14:19 50.1 °F /  10.1 °C 45.4 °F /  7.4 °C 29.83in /  1010hPa WNW 5.7mph /  9.2km/h 14mph /  22.5km/h 84% 0.00in /  0mm 88 W/m2
14:24 50 °F /  10 °C 45.3 °F /  7.4 °C 29.83in /  1010hPa WNW 6.1mph /  9.8km/h 9mph /  14.5km/h 84% 0.00in /  0mm 62 W/m2
14:29 49.9 °F /  9.9 °C 45.2 °F /  7.3 °C 29.84in /  1010.4hPa West 4.8mph /  7.7km/h 15mph /  24.1km/h 84% 0.00in /  0mm 49 W/m2
14:34 50 °F /  10 °C 45.4 °F /  7.4 °C 29.84in /  1010.4hPa WSW 4mph /  6.4km/h 7mph /  11.3km/h 84.2% 0.00in /  0mm 58 W/m2
14:39 49.9 °F /  9.9 °C 45.6 °F /  7.6 °C 29.85in /  1010.7hPa West 4.7mph /  7.6km/h 8mph /  12.9km/h 85% 0.00in /  0mm 81 W/m2
14:44 49.9 °F /  9.9 °C 45.6 °F /  7.6 °C 29.85in /  1010.7hPa WSW 4.9mph /  7.9km/h 8mph /  12.9km/h 85% 0.00in /  0mm 69 W/m2
14:49 49.8 °F /  9.9 °C 45.5 °F /  7.5 °C 29.85in /  1010.7hPa West 11mph /  17.7km/h 16mph /  25.7km/h 85% 0.00in /  0mm 86 W/m2
14:54 49.8 °F /  9.9 °C 45.5 °F /  7.5 °C 29.85in /  1010.7hPa West 4.4mph /  7.1km/h 16mph /  25.7km/h 85% 0.00in /  0mm 107 W/m2
14:59 49.8 °F /  9.9 °C 45.5 °F /  7.5 °C 29.86in /  1011.1hPa West 6.1mph /  9.8km/h 13mph /  20.9km/h 85% 0.00in /  0mm 69 W/m2
15:04 49.6 °F /  9.8 °C 45.3 °F /  7.4 °C 29.86in /  1011.1hPa West 6.2mph /  10km/h 12mph /  19.3km/h 85% 0.00in /  0mm 46 W/m2
15:09 49.5 °F /  9.7 °C 45.2 °F /  7.3 °C 29.86in /  1011.1hPa WNW 5mph /  8km/h 12mph /  19.3km/h 85% 0.00in /  0mm 39 W/m2
15:14 49.4 °F /  9.7 °C 45.1 °F /  7.3 °C 29.86in /  1011.1hPa WNW 7.1mph /  11.4km/h 12mph /  19.3km/h 85% 0.00in /  0mm 33 W/m2
15:19 49.3 °F /  9.6 °C 45.1 °F /  7.3 °C 29.86in /  1011.1hPa West 6.8mph /  10.9km/h 12mph /  19.3km/h 85.6% 0.00in /  0mm 32 W/m2
15:24 48.9 °F /  9.4 °C 45 °F /  7.2 °C 29.86in /  1011.1hPa WNW 6.4mph /  10.3km/h 12mph /  19.3km/h 86% 0.00in /  0mm 26 W/m2
15:29 48.9 °F /  9.4 °C 45 °F /  7.2 °C 29.86in /  1011.1hPa West 6.7mph /  10.8km/h 12mph /  19.3km/h 86% 0.00in /  0mm 23 W/m2
15:34 48.8 °F /  9.3 °C 44.9 °F /  7.2 °C 29.86in /  1011.1hPa WNW 7.2mph /  11.6km/h 12mph /  19.3km/h 86% 0.00in /  0mm 19 W/m2
15:39 48.7 °F /  9.3 °C 44.8 °F /  7.1 °C 29.86in /  1011.1hPa WNW 3.2mph /  5.1km/h 9mph /  14.5km/h 86% 0.00in /  0mm 16 W/m2
15:44 48.6 °F /  9.2 °C 44.7 °F /  7.1 °C 29.86in /  1011.1hPa WNW 2.9mph /  4.7km/h 7mph /  11.3km/h 86% 0.00in /  0mm 12 W/m2
15:49 48.6 °F /  9.2 °C 44.6 °F /  7 °C 29.86in /  1011.1hPa WNW 3.2mph /  5.1km/h 4mph /  6.4km/h 86% 0.00in /  0mm 11 W/m2
15:54 48.4 °F /  9.1 °C 44.4 °F /  6.9 °C 29.86in /  1011.1hPa West 3.4mph /  5.5km/h 6mph /  9.7km/h 86% 0.00in /  0mm 5 W/m2
15:59 48.4 °F /  9.1 °C 44.4 °F /  6.9 °C 29.86in /  1011.1hPa West 4.1mph /  6.6km/h 8mph /  12.9km/h 86% 0.00in /  0mm 5 W/m2
16:04 48.4 °F /  9.1 °C 44.4 °F /  6.9 °C 29.86in /  1011.1hPa West 2.4mph /  3.9km/h 6mph /  9.7km/h 86% 0.00in /  0mm 0 W/m2
16:09 48.2 °F /  9 °C 44.2 °F /  6.8 °C 29.86in /  1011.1hPa West 3.3mph /  5.3km/h 5mph /  8km/h 86% 0.00in /  0mm 0 W/m2
16:14 48 °F /  8.9 °C 44.1 °F /  6.7 °C 29.86in /  1011.1hPa West 2.9mph /  4.7km/h 6mph /  9.7km/h 86% 0.00in /  0mm 0 W/m2
16:19 48 °F /  8.9 °C 44.1 °F /  6.7 °C 29.87in /  1011.4hPa WNW 3.2mph /  5.1km/h 5mph /  8km/h 86% 0.00in /  0mm 0 W/m2
16:24 47.8 °F /  8.8 °C 43.9 °F /  6.6 °C 29.87in /  1011.4hPa West 1.2mph /  1.9km/h 4mph /  6.4km/h 86% 0.00in /  0mm 0 W/m2
16:29 47.8 °F /  8.8 °C 43.9 °F /  6.6 °C 29.87in /  1011.4hPa West 0.4mph /  0.6km/h 2mph /  3.2km/h 86% 0.00in /  0mm 0 W/m2
16:34 47.7 °F /  8.7 °C 43.7 °F /  6.5 °C 29.87in /  1011.4hPa West 0.5mph /  0.8km/h 2mph /  3.2km/h 86% 0.00in /  0mm 0 W/m2
16:39 47.7 °F /  8.7 °C 44.1 °F /  6.7 °C 29.87in /  1011.4hPa West 1.2mph /  1.9km/h 2mph /  3.2km/h 87% 0.00in /  0mm 0 W/m2
16:44 47.6 °F /  8.7 °C 44 °F /  6.7 °C 29.87in /  1011.4hPa WSW 1.1mph /  1.8km/h 3mph /  4.8km/h 87% 0.00in /  0mm 0 W/m2
16:49 47.5 °F /  8.6 °C 43.9 °F /  6.6 °C 29.87in /  1011.4hPa WSW 1.2mph /  1.9km/h 3mph /  4.8km/h 87% 0.00in /  0mm 0 W/m2
16:54 47.3 °F /  8.5 °C 43.7 °F /  6.5 °C 29.87in /  1011.4hPa WSW 0.8mph /  1.3km/h 3mph /  4.8km/h 87% 0.00in /  0mm 0 W/m2
16:59 47.1 °F /  8.4 °C 43.5 °F /  6.4 °C 29.88in /  1011.7hPa WSW 1.3mph /  2.1km/h 3mph /  4.8km/h 87% 0.00in /  0mm 0 W/m2
17:04 47.1 °F /  8.4 °C 43.5 °F /  6.4 °C 29.88in /  1011.7hPa WSW 0.2mph /  0.3km/h 2mph /  3.2km/h 87% 0.00in /  0mm 0 W/m2
17:09 47.1 °F /  8.4 °C 43.5 °F /  6.4 °C 29.88in /  1011.7hPa WSW 0.9mph /  1.4km/h 3mph /  4.8km/h 87% 0.00in /  0mm 0 W/m2
17:13 47.1 °F /  8.4 °C 43.7 °F /  6.5 °C 29.88in /  1011.7hPa WSW 0.7mph /  1.1km/h 3mph /  4.8km/h 87.8% 0.00in /  0mm 0 W/m2
17:19 47.1 °F /  8.4 °C 43.5 °F /  6.4 °C 29.88in /  1011.7hPa SSW 2.1mph /  3.4km/h 4mph /  6.4km/h 87.2% 0.00in /  0mm 0 W/m2
17:24 46.9 °F /  8.3 °C 43.3 °F /  6.3 °C 29.88in /  1011.7hPa WSW 1.1mph /  1.8km/h 3mph /  4.8km/h 87% 0.00in /  0mm 0 W/m2
17:29 46.9 °F /  8.3 °C 43.3 °F /  6.3 °C 29.87in /  1011.4hPa WSW 2.8mph /  4.5km/h 7mph /  11.3km/h 87% 0.00in /  0mm 0 W/m2
17:34 46.9 °F /  8.3 °C 43.3 °F /  6.3 °C 29.87in /  1011.4hPa WSW 0.4mph /  0.6km/h 4mph /  6.4km/h 87% 0.00in /  0mm 0 W/m2
17:39 46.9 °F /  8.3 °C 43.3 °F /  6.3 °C 29.86in /  1011.1hPa SSW 0.2mph /  0.3km/h 2mph /  3.2km/h 87% 0.00in /  0mm 0 W/m2
17:44 46.8 °F /  8.2 °C 43.2 °F /  6.2 °C 29.86in /  1011.1hPa Calm   2mph /  3.2km/h 87% 0.00in /  0mm 0 W/m2
17:49 46.8 °F /  8.2 °C 43.2 °F /  6.2 °C 29.86in /  1011.1hPa SSW 0.2mph /  0.3km/h 2mph /  3.2km/h 87% 0.00in /  0mm 0 W/m2
17:54 46.6 °F /  8.1 °C 43 °F /  6.1 °C 29.86in /  1011.1hPa SW 0.4mph /  0.6km/h 2mph /  3.2km/h 87% 0.00in /  0mm 0 W/m2
17:59 46.4 °F /  8 °C 43 °F /  6.1 °C 29.87in /  1011.4hPa SW 3mph /  4.8km/h 7mph /  11.3km/h 88% 0.00in /  0mm 0 W/m2
18:03 46.4 °F /  8 °C 43 °F /  6.1 °C 29.86in /  1011.1hPa SW 3.2mph /  5.1km/h 7mph /  11.3km/h 88% 0.00in /  0mm 0 W/m2
18:09 46.5 °F /  8.1 °C 43.1 °F /  6.2 °C 29.86in /  1011.1hPa WSW 4.2mph /  6.8km/h 8mph /  12.9km/h 88% 0.00in /  0mm 0 W/m2
18:14 46.6 °F /  8.1 °C 43.2 °F /  6.2 °C 29.86in /  1011.1hPa SW 4.8mph /  7.7km/h 8mph /  12.9km/h 88% 0.00in /  0mm 0 W/m2
18:19 46.8 °F /  8.2 °C 43.3 °F /  6.3 °C 29.86in /  1011.1hPa SW 4.1mph /  6.6km/h 8mph /  12.9km/h 88% 0.00in /  0mm 0 W/m2
18:24 46.8 °F /  8.2 °C 43.3 °F /  6.3 °C 29.86in /  1011.1hPa SW 3.8mph /  6.1km/h 10mph /  16.1km/h 88% 0.00in /  0mm 0 W/m2
18:29 46.8 °F /  8.2 °C 43.3 °F /  6.3 °C 29.86in /  1011.1hPa SW 4mph /  6.4km/h 7mph /  11.3km/h 88% 0.00in /  0mm 0 W/m2
18:34 46.8 °F /  8.2 °C 43.3 °F /  6.3 °C 29.86in /  1011.1hPa SSW 2mph /  3.2km/h 6mph /  9.7km/h 88% 0.00in /  0mm 0 W/m2
18:39 46.6 °F /  8.1 °C 43.2 °F /  6.2 °C 29.86in /  1011.1hPa SW 2.5mph /  4km/h 6mph /  9.7km/h 88% 0.00in /  0mm 0 W/m2
18:44 46.6 °F /  8.1 °C 43.2 °F /  6.2 °C 29.85in /  1010.7hPa SW 2.1mph /  3.4km/h 5mph /  8km/h 88% 0.00in /  0mm 0 W/m2
18:48 46.6 °F /  8.1 °C 43.2 °F /  6.2 °C 29.85in /  1010.7hPa SW 2.4mph /  3.9km/h 5mph /  8km/h 88% 0.00in /  0mm 0 W/m2
18:54 46.6 °F /  8.1 °C 43.2 °F /  6.2 °C 29.85in /  1010.7hPa SW 2.2mph /  3.5km/h 4mph /  6.4km/h 88% 0.00in /  0mm 0 W/m2
18:59 46.6 °F /  8.1 °C 43.2 °F /  6.2 °C 29.85in /  1010.7hPa SW 2.1mph /  3.4km/h 4mph /  6.4km/h 88% 0.00in /  0mm 0 W/m2
19:04 46.6 °F /  8.1 °C 43.2 °F /  6.2 °C 29.86in /  1011.1hPa SW 1.3mph /  2.1km/h 4mph /  6.4km/h 88% 0.00in /  0mm 0 W/m2
19:09 46.4 °F /  8 °C 43 °F /  6.1 °C 29.86in /  1011.1hPa SW 2.6mph /  4.2km/h 5mph /  8km/h 88% 0.00in /  0mm 0 W/m2
19:14 46.5 °F /  8.1 °C 43.1 °F /  6.2 °C 29.85in /  1010.7hPa SSW 0.5mph /  0.8km/h 4mph /  6.4km/h 88% 0.00in /  0mm 0 W/m2
19:19 46.5 °F /  8.1 °C 43.1 °F /  6.2 °C 29.85in /  1010.7hPa South 0.2mph /  0.3km/h 2mph /  3.2km/h 88% 0.00in /  0mm 0 W/m2
19:24 46.3 °F /  7.9 °C 42.9 °F /  6.1 °C 29.85in /  1010.7hPa SE 1.5mph /  2.4km/h 5mph /  8km/h 88% 0.00in /  0mm 0 W/m2
19:29 46.2 °F /  7.9 °C 42.8 °F /  6 °C 29.85in /  1010.7hPa ESE 1.5mph /  2.4km/h 3mph /  4.8km/h 88% 0.00in /  0mm 0 W/m2
19:34 46 °F /  7.8 °C 42.6 °F /  5.9 °C 29.85in /  1010.7hPa ESE 0.8mph /  1.3km/h 2mph /  3.2km/h 88% 0.00in /  0mm 0 W/m2
19:39 45.9 °F /  7.7 °C 42.4 °F /  5.8 °C 29.85in /  1010.7hPa ESE 0.7mph /  1.1km/h 2mph /  3.2km/h 88% 0.00in /  0mm 0 W/m2
19:43 45.8 °F /  7.7 °C 42.3 °F /  5.7 °C 29.85in /  1010.7hPa ESE 0.2mph /  0.3km/h 1mph /  1.6km/h 88% 0.00in /  0mm 0 W/m2
19:49 45.7 °F /  7.6 °C 42.3 °F /  5.7 °C 29.85in /  1010.7hPa Calm   1mph /  1.6km/h 88% 0.00in /  0mm 0 W/m2
19:54 45.7 °F /  7.6 °C 42.4 °F /  5.8 °C 29.85in /  1010.7hPa WSW 1.9mph /  3.1km/h 3mph /  4.8km/h 88.2% 0.00in /  0mm 0 W/m2
19:59 45.8 °F /  7.7 °C 42.4 °F /  5.8 °C 29.85in /  1010.7hPa SW 2.7mph /  4.3km/h 5mph /  8km/h 88.2% 0.00in /  0mm 0 W/m2
20:04 45.9 °F /  7.7 °C 42.6 °F /  5.9 °C 29.85in /  1010.7hPa SW 2.1mph /  3.4km/h 6mph /  9.7km/h 88.6% 0.00in /  0mm 0 W/m2
20:09 45.9 °F /  7.7 °C 42.6 °F /  5.9 °C 29.84in /  1010.4hPa SW 1.5mph /  2.4km/h 5mph /  8km/h 88.4% 0.00in /  0mm 0 W/m2
20:14 45.9 °F /  7.7 °C 42.4 °F /  5.8 °C 29.84in /  1010.4hPa SW 2.5mph /  4km/h 5mph /  8km/h 88% 0.00in /  0mm 0 W/m2
20:19 45.9 °F /  7.7 °C 42.5 °F /  5.8 °C 29.84in /  1010.4hPa SW 3.5mph /  5.6km/h 6mph /  9.7km/h 88% 0.00in /  0mm 0 W/m2
20:24 46 °F /  7.8 °C 42.6 °F /  5.9 °C 29.84in /  1010.4hPa SW 2.3mph /  3.7km/h 6mph /  9.7km/h 88% 0.00in /  0mm 0 W/m2
20:29 46 °F /  7.8 °C 42.6 °F /  5.9 °C 29.84in /  1010.4hPa SSW 3mph /  4.8km/h 6mph /  9.7km/h 88% 0.00in /  0mm 0 W/m2
20:34 46 °F /  7.8 °C 42.6 °F /  5.9 °C 29.84in /  1010.4hPa SSW 1.9mph /  3.1km/h 6mph /  9.7km/h 88% 0.00in /  0mm 0 W/m2
20:39 46 °F /  7.8 °C 42.6 °F /  5.9 °C 29.84in /  1010.4hPa SSW 1.4mph /  2.3km/h 5mph /  8km/h 88% 0.00in /  0mm 0 W/m2
20:44 46.1 °F /  7.8 °C 42.7 °F /  5.9 °C 29.83in /  1010hPa SSW 1.9mph /  3.1km/h 5mph /  8km/h 88% 0.00in /  0mm 0 W/m2
20:49 46.2 °F /  7.9 °C 42.8 °F /  6 °C 29.83in /  1010hPa SSW 2.6mph /  4.2km/h 7mph /  11.3km/h 88% 0.00in /  0mm 0 W/m2
20:54 46.3 °F /  7.9 °C 42.9 °F /  6.1 °C 29.83in /  1010hPa South 2mph /  3.2km/h 4mph /  6.4km/h 88% 0.00in /  0mm 0 W/m2
20:59 46.2 °F /  7.9 °C 42.7 °F /  5.9 °C 29.82in /  1009.7hPa SSW 1.5mph /  2.4km/h 4mph /  6.4km/h 87.4% 0.00in /  0mm 0 W/m2
21:04 46.2 °F /  7.9 °C 42.6 °F /  5.9 °C 29.82in /  1009.7hPa SSE 0.9mph /  1.4km/h 4mph /  6.4km/h 87% 0.00in /  0mm 0 W/m2
21:09 46.2 °F /  7.9 °C 42.7 °F /  5.9 °C 29.81in /  1009.4hPa SSE 2.3mph /  3.7km/h 5mph /  8km/h 87.4% 0.00in /  0mm 0 W/m2
21:14 46.2 °F /  7.9 °C 42.8 °F /  6 °C 29.81in /  1009.4hPa SSE 1.2mph /  1.9km/h 4mph /  6.4km/h 88% 0.00in /  0mm 0 W/m2
21:19 46.2 °F /  7.9 °C 42.8 °F /  6 °C 29.81in /  1009.4hPa SW 2.4mph /  3.9km/h 5mph /  8km/h 88% 0.00in /  0mm 0 W/m2
21:24 46.2 °F /  7.9 °C 42.8 °F /  6 °C 29.81in /  1009.4hPa SW 2.5mph /  4km/h 5mph /  8km/h 88% 0.00in /  0mm 0 W/m2
21:29 46.2 °F /  7.9 °C 42.8 °F /  6 °C 29.81in /  1009.4hPa SSW 1.6mph /  2.6km/h 4mph /  6.4km/h 88% 0.00in /  0mm 0 W/m2
21:34 46.1 °F /  7.8 °C 42.6 °F /  5.9 °C 29.81in /  1009.4hPa South 1.9mph /  3.1km/h 5mph /  8km/h 87.6% 0.00in /  0mm 0 W/m2
21:39 46.1 °F /  7.8 °C 42.7 °F /  5.9 °C 29.81in /  1009.4hPa SSE 1.4mph /  2.3km/h 3mph /  4.8km/h 88% 0.00in /  0mm 0 W/m2
21:44 45.9 °F /  7.7 °C 42.4 °F /  5.8 °C 29.80in /  1009hPa East 1.3mph /  2.1km/h 3mph /  4.8km/h 87.2% 0.00in /  0mm 0 W/m2
21:49 45.8 °F /  7.7 °C 42.3 °F /  5.7 °C 29.80in /  1009hPa East 2mph /  3.2km/h 3mph /  4.8km/h 88% 0.00in /  0mm 0 W/m2
21:54 45.7 °F /  7.6 °C 42.3 °F /  5.7 °C 29.80in /  1009hPa East 1.1mph /  1.8km/h 3mph /  4.8km/h 88% 0.00in /  0mm 0 W/m2
21:58 45.7 °F /  7.6 °C 42.3 °F /  5.7 °C 29.80in /  1009hPa East 1.2mph /  1.9km/h 2mph /  3.2km/h 88% 0.00in /  0mm 0 W/m2
22:04 45.7 °F /  7.6 °C 42.3 °F /  5.7 °C 29.80in /  1009hPa East 2.6mph /  4.2km/h 5mph /  8km/h 88% 0.00in /  0mm 0 W/m2
22:09 45.7 °F /  7.6 °C 42.5 °F /  5.8 °C 29.80in /  1009hPa ENE 1.6mph /  2.6km/h 3mph /  4.8km/h 88.6% 0.00in /  0mm 0 W/m2
22:14 45.9 °F /  7.7 °C 42.4 °F /  5.8 °C 29.79in /  1008.7hPa ESE 2mph /  3.2km/h 4mph /  6.4km/h 88% 0.00in /  0mm 0 W/m2
22:19 45.9 °F /  7.7 °C 42.6 °F /  5.9 °C 29.79in /  1008.7hPa ESE 1.6mph /  2.6km/h 5mph /  8km/h 88.6% 0.00in /  0mm 0 W/m2
22:24 45.9 °F /  7.7 °C 42.8 °F /  6 °C 29.79in /  1008.7hPa East 1.9mph /  3.1km/h 5mph /  8km/h 89% 0.00in /  0mm 0 W/m2
22:29 45.9 °F /  7.7 °C 42.8 °F /  6 °C 29.79in /  1008.7hPa East 1.7mph /  2.7km/h 4mph /  6.4km/h 89% 0.00in /  0mm 0 W/m2
22:34 46 °F /  7.8 °C 43 °F /  6.1 °C 29.78in /  1008.4hPa East 1.7mph /  2.7km/h 3mph /  4.8km/h 89% 0.00in /  0mm 0 W/m2
22:39 46 °F /  7.8 °C 43 °F /  6.1 °C 29.78in /  1008.4hPa East 1.1mph /  1.8km/h 4mph /  6.4km/h 89% 0.00in /  0mm 0 W/m2
22:44 46 °F /  7.8 °C 43 °F /  6.1 °C 29.78in /  1008.4hPa SE 1.2mph /  1.9km/h 3mph /  4.8km/h 89% 0.00in /  0mm 0 W/m2
22:49 45.9 °F /  7.7 °C 42.8 °F /  6 °C 29.78in /  1008.4hPa SE 5.2mph /  8.4km/h 8mph /  12.9km/h 89% 0.00in /  0mm 0 W/m2
22:54 45.9 °F /  7.7 °C 42.9 °F /  6.1 °C 29.78in /  1008.4hPa SE 3.2mph /  5.1km/h 8mph /  12.9km/h 89% 0.00in /  0mm 0 W/m2
22:59 46 °F /  7.8 °C 43 °F /  6.1 °C 29.77in /  1008hPa SE 2.3mph /  3.7km/h 5mph /  8km/h 89% 0.00in /  0mm 0 W/m2
23:04 46 °F /  7.8 °C 43 °F /  6.1 °C 29.77in /  1008hPa ESE 3.5mph /  5.6km/h 7mph /  11.3km/h 89% 0.00in /  0mm 0 W/m2
23:09 46.2 °F /  7.9 °C 43.2 °F /  6.2 °C 29.77in /  1008hPa ESE 2.6mph /  4.2km/h 5mph /  8km/h 89% 0.00in /  0mm 0 W/m2
23:14 46.2 °F /  7.9 °C 43.2 °F /  6.2 °C 29.77in /  1008hPa SE 2.8mph /  4.5km/h 5mph /  8km/h 89% 0.00in /  0mm 0 W/m2
23:19 46.2 °F /  7.9 °C 43.2 °F /  6.2 °C 29.76in /  1007.7hPa ESE 2.9mph /  4.7km/h 5mph /  8km/h 89% 0.00in /  0mm 0 W/m2
23:24 46.3 °F /  7.9 °C 43.3 °F /  6.3 °C 29.76in /  1007.7hPa ESE 3.2mph /  5.1km/h 8mph /  12.9km/h 89% 0.00in /  0mm 0 W/m2
23:29 46.5 °F /  8.1 °C 43.4 °F /  6.3 °C 29.76in /  1007.7hPa ESE 3.6mph /  5.8km/h 6mph /  9.7km/h 89% 0.00in /  0mm 0 W/m2
23:34 46.6 °F /  8.1 °C 43.6 °F /  6.4 °C 29.76in /  1007.7hPa SE 2.8mph /  4.5km/h 6mph /  9.7km/h 89.2% 0.00in /  0mm 0 W/m2
23:39 46.6 °F /  8.1 °C 43.5 °F /  6.4 °C 29.75in /  1007.3hPa SSE 2.7mph /  4.3km/h 7mph /  11.3km/h 89% 0.00in /  0mm 0 W/m2
23:44 46.8 °F /  8.2 °C 43.7 °F /  6.5 °C 29.75in /  1007.3hPa SE 3.5mph /  5.6km/h 7mph /  11.3km/h 89% 0.00in /  0mm 0 W/m2
23:49 46.8 °F /  8.2 °C 43.8 °F /  6.6 °C 29.74in /  1007hPa SSE 2.7mph /  4.3km/h 6mph /  9.7km/h 89% 0.00in /  0mm 0 W/m2
23:54 46.9 °F /  8.3 °C 43.9 °F /  6.6 °C 29.74in /  1007hPa SE 2.5mph /  4km/h 6mph /  9.7km/h 89% 0.00in /  0mm 0 W/m2
23:59 47 °F /  8.3 °C 44 °F /  6.7 °C 29.74in /  1007hPa SE 3.5mph /  5.6km/h 7mph /  11.3km/h 89% 0.00in /  0mm 0 W/m2
Bath Spa Weather
Compliments of Weather Underground - 2 mb